Flight Track Log - Related Links

Times and Time Zones

All times are in EDT time to prevent confusion due to time zone crossing. See the CTL18 flight status page for this flight to view local times or setup timezone preferences in your user account.

Time Position Orientation Groundspeed Altitude Reporting Facility
EDT Latitude Longitude Course Direction KTS MPH feet Rate Location/Type
Tue 09:24:59 PM 42.2261 -83.5472 231° Southwest 103 119 1,200  Level Cleveland Center
Tue 09:25:48 PM 42.2131 -83.5689 231° Southwest 88 101 2,100 931 Climbing Cleveland Center
Tue 09:26:55 PM 42.1853 -83.5928 213° Southwest 109 125 3,000 803 Climbing Cleveland Center
Tue 09:27:55 PM 42.1558 -83.6000 190° South 111 128 3,800 496 Climbing Cleveland Center
Tue 09:28:56 PM 42.1206 -83.5956 175° South 142 163 4,000 52 Climbing Cleveland Center
Tue 09:29:51 PM 42.0831 -83.5881 172° South 153 176 3,900 -55 Descending Cleveland Center
Tue 09:30:45 PM 42.0481 -83.5781 168° South 151 174 3,900 52 Level Cleveland Center
Tue 09:31:46 PM 42.0222 -83.5292 125° Southeast 169 194 4,000  Climbing Cleveland Center
Tue 09:32:46 PM 42.0069 -83.4672 108° East 170 196 3,900  Descending Cleveland Center
Tue 09:33:47 PM 41.9897 -83.4078 111° Southeast 169 194 4,000 98 Climbing Cleveland Center
Tue 09:34:48 PM 41.9725 -83.3511 112° Southeast 167 192 4,100 298 Climbing Cleveland Center
Tue 09:35:48 PM 41.9592 -83.2975 108° East 151 174 4,600 446 Climbing Cleveland Center
Tue 09:36:49 PM 41.9436 -83.2492 113° Southeast 147 169 5,000 197 Climbing Cleveland Center
Tue 09:37:50 PM 41.9261 -83.1872 111° Southeast 170 196 5,000  Level Cleveland Center
Tue 09:38:50 PM 41.9108 -83.1278 109° East 166 191 5,000  Level Cleveland Center
Tue 09:39:51 PM 41.8956 -83.0686 109° East 167 192 5,000  Level Cleveland Center
Tue 09:40:53 PM 41.8819 -83.0181 110° East 165 190 5,000  Level Cleveland Center
Tue 09:41:23 PM 41.8764 -82.9869 103° East 163 188 5,000  Level Cleveland Center
Tue 09:42:24 PM 41.8547 -82.9222 114° Southeast 164 189 5,000  Level Cleveland Center
Tue 09:43:18 PM 41.8433 -82.8686 106° East 164 189 5,000  Level Cleveland Center
Tue 09:44:19 PM 41.8278 -82.8125 110° East 163 188 5,000  Level Cleveland Center
Tue 09:45:20 PM 41.8122 -82.7561 110° East 165 190 5,000  Level Cleveland Center
Tue 09:46:20 PM 41.7967 -82.7000 110° East 163 188 5,000  Level Cleveland Center
Tue 09:47:21 PM 41.7808 -82.6411 110° East 166 191 5,000  Level Cleveland Center
Tue 09:48:34 PM 41.7594 -82.5678 111° Southeast 165 190 5,000  Level Cleveland Center
Tue 09:49:34 PM 41.7456 -82.5117 108° East 165 190 5,000  Level Cleveland Center
Tue 09:50:23 PM 41.7339 -82.4642 108° East 162 186 5,000  Level Cleveland Center
Tue 09:51:23 PM 41.7161 -82.4053 112° Southeast 164 189 5,000  Level Cleveland Center
Tue 09:52:24 PM 41.7025 -82.3464 107° East 167 192 5,000 49 Level Cleveland Center
Tue 09:53:25 PM 41.6867 -82.2903 111° Southeast 162 186 5,100 -94 Climbing Cleveland Center
Tue 09:54:31 PM 41.6689 -82.2258 110° East 172 198 4,800 -451 Descending Cleveland Center
Tue 09:55:38 PM 41.6511 -82.1561 109° East 177 204 4,100 -627 Descending Cleveland Center
Tue 09:56:45 PM 41.6333 -82.0889 109° East 181 208 3,400 -495 Descending Cleveland Center
Tue 09:57:27 PM 41.6233 -82.0442 107° East 176 203 3,200 -233 Descending Cleveland Center
Tue 09:58:28 PM 41.6053 -81.9828 111° Southeast 167 192 3,000 -197 Descending Cleveland Center
Tue 09:59:29 PM 41.5894 -81.9297 112° Southeast 154 177 2,800 -283 Descending Cleveland Center
Tue 10:00:35 PM 41.5692 -81.8736 116° Southeast 152 175 2,400 -361 Descending Cleveland Center
Tue 10:01:42 PM 41.5467 -81.8233 121° Southeast 138 159 2,000 -328 Descending Cleveland Center
Tue 10:02:43 PM 41.5325 -81.7814 114° Southeast 119 137 1,700 -295 Descending Cleveland Center

Login

Don't have an account? Register now (free) for customized features, flight alerts, and more!